createdAt,value
2023-05-08T00:01:31.182Z,5.45
2023-05-08T00:03:58.538Z,6.43
2023-05-08T00:06:27.605Z,4.72
2023-05-08T00:08:55.739Z,5.38
2023-05-08T00:11:22.859Z,5.82
2023-05-08T00:13:49.611Z,5.82
2023-05-08T00:16:16.483Z,4.13
2023-05-08T00:18:43.832Z,7.18
2023-05-08T00:21:10.650Z,4.35
2023-05-08T00:23:37.484Z,5.32
2023-05-08T00:26:04.387Z,4.93
2023-05-08T00:28:31.153Z,4.75
2023-05-08T00:31:02.029Z,5.07
2023-05-08T00:33:29.012Z,5.72
2023-05-08T00:36:05.799Z,5.22
2023-05-08T00:38:33.986Z,6.32
2023-05-08T00:41:01.663Z,4.10
2023-05-08T00:43:29.241Z,6.05
2023-05-08T00:45:57.362Z,5.63
2023-05-08T00:48:25.509Z,4.47
2023-05-08T00:50:54.708Z,4.78
2023-05-08T00:53:22.745Z,4.82
2023-05-08T00:55:51.852Z,4.88
2023-05-08T00:58:20.717Z,4.63
2023-05-08T01:00:48.319Z,4.63
2023-05-08T01:03:15.773Z,6.03
2023-05-08T01:05:43.904Z,4.10
2023-05-08T01:08:10.724Z,4.88
2023-05-08T01:11:11.615Z,5.68
2023-05-08T01:13:52.225Z,4.47
2023-05-08T01:16:50.233Z,5.93
2023-05-08T01:19:35.087Z,5.13
2023-05-08T01:22:10.474Z,7.53
2023-05-08T01:25:06.950Z,5.00
2023-05-08T01:27:59.058Z,6.22
2023-05-08T01:31:01.157Z,4.60
2023-05-08T01:33:41.081Z,7.00
2023-05-08T01:36:34.363Z,5.10
2023-05-08T01:39:05.000Z,3.95
2023-05-08T01:41:34.594Z,5.85
2023-05-08T01:44:10.576Z,5.95
2023-05-08T01:46:37.547Z,4.22
2023-05-08T01:49:09.586Z,6.13
2023-05-08T01:51:47.237Z,5.53
2023-05-08T01:54:22.679Z,5.85
2023-05-08T01:56:53.076Z,5.95
2023-05-08T01:59:22.559Z,5.35
2023-05-08T02:01:54.058Z,6.55
2023-05-08T02:04:22.517Z,7.43
2023-05-08T02:06:51.500Z,7.05
2023-05-08T02:09:19.965Z,5.28
2023-05-08T02:11:47.898Z,5.97
2023-05-08T02:14:17.082Z,5.97
2023-05-08T02:16:44.953Z,5.13
2023-05-08T02:19:13.105Z,7.43
2023-05-08T02:21:40.852Z,6.43
2023-05-08T02:24:09.102Z,5.88
2023-05-08T02:26:36.905Z,4.70
2023-05-08T02:29:04.253Z,7.43
2023-05-08T02:31:31.421Z,4.38
2023-05-08T02:33:59.874Z,6.40
2023-05-08T02:36:29.029Z,5.88
2023-05-08T02:38:58.774Z,4.47
2023-05-08T02:41:29.426Z,4.95
2023-05-08T02:43:56.481Z,4.30
2023-05-08T02:46:29.893Z,4.38
2023-05-08T02:49:03.667Z,6.18
2023-05-08T02:52:08.008Z,5.05
2023-05-08T02:54:44.306Z,4.30
2023-05-08T02:57:21.929Z,5.38
2023-05-08T03:00:16.842Z,6.22
2023-05-08T03:02:50.882Z,8.40
2023-05-08T03:05:20.771Z,7.05
2023-05-08T03:07:55.896Z,5.72
2023-05-08T03:10:28.331Z,6.47
2023-05-08T03:12:57.765Z,5.43
2023-05-08T03:15:32.966Z,6.47
2023-05-08T03:18:06.488Z,5.32
2023-05-08T03:20:38.128Z,4.10
2023-05-08T03:23:09.261Z,4.63
2023-05-08T03:25:38.667Z,6.07
2023-05-08T03:28:06.399Z,4.03
2023-05-08T03:30:37.189Z,5.00
2023-05-08T03:33:07.908Z,4.72
2023-05-08T03:35:39.145Z,5.38
2023-05-08T03:38:06.894Z,5.63
2023-05-08T03:40:38.990Z,7.05
2023-05-08T03:43:09.977Z,6.22
2023-05-08T03:45:39.323Z,4.82
2023-05-08T03:48:08.092Z,8.35
2023-05-08T03:50:36.797Z,5.72
2023-05-08T03:53:03.589Z,5.55
2023-05-08T03:55:32.284Z,5.22
2023-05-08T03:58:21.782Z,6.90
2023-05-08T04:01:28.669Z,6.75
2023-05-08T04:04:11.650Z,7.00
2023-05-08T04:06:50.156Z,6.30
2023-05-08T04:09:51.612Z,8.30
2023-05-08T04:12:21.968Z,6.95
2023-05-08T04:15:01.210Z,4.90
2023-05-08T04:17:43.507Z,5.18
2023-05-08T04:20:15.306Z,6.88
2023-05-08T04:22:43.411Z,6.10
2023-05-08T04:25:12.790Z,7.60
2023-05-08T04:27:39.931Z,6.70
2023-05-08T04:30:08.155Z,6.60
2023-05-08T04:32:38.371Z,5.50
2023-05-08T04:35:08.002Z,5.55
2023-05-08T04:37:35.286Z,5.22
2023-05-08T04:40:03.860Z,6.68
2023-05-08T04:42:30.981Z,6.65
2023-05-08T04:44:57.834Z,7.45
2023-05-08T04:47:24.696Z,6.60
2023-05-08T04:49:51.608Z,6.00
2023-05-08T04:52:18.455Z,9.30
2023-05-08T04:54:45.389Z,10.00
2023-05-08T04:57:12.163Z,6.07
2023-05-08T04:59:39.005Z,7.35
2023-05-08T05:02:08.350Z,7.60
2023-05-08T05:04:38.287Z,6.28
2023-05-08T05:07:05.342Z,6.38
2023-05-08T05:09:34.891Z,6.20
2023-05-08T05:12:01.730Z,5.93
2023-05-08T05:14:31.237Z,6.85
2023-05-08T05:16:59.158Z,6.28
2023-05-08T05:19:25.916Z,7.18
2023-05-08T05:21:53.056Z,6.05
2023-05-08T05:24:19.914Z,6.15
2023-05-08T05:26:46.724Z,6.78
2023-05-08T05:29:13.612Z,4.95
2023-05-08T05:31:40.480Z,7.95
2023-05-08T05:34:07.444Z,7.80
2023-05-08T05:36:34.437Z,7.20
2023-05-08T05:39:01.286Z,7.95
2023-05-08T05:41:28.045Z,7.28
2023-05-08T05:43:54.930Z,6.60
2023-05-08T05:46:21.710Z,5.53
2023-05-08T05:48:48.507Z,6.15
2023-05-08T05:51:15.456Z,5.38
2023-05-08T05:53:42.263Z,5.05
2023-05-08T05:56:09.115Z,5.05
2023-05-08T05:58:36.019Z,8.07
2023-05-08T06:01:03.110Z,4.78
2023-05-08T06:03:30.037Z,7.00
2023-05-08T06:05:57.481Z,4.53
2023-05-08T06:08:24.362Z,5.32
2023-05-08T06:10:51.152Z,6.00
2023-05-08T06:13:18.312Z,5.53
2023-05-08T06:15:45.367Z,4.78
2023-05-08T06:18:12.412Z,8.00
2023-05-08T06:20:39.230Z,5.18
2023-05-08T06:23:06.140Z,5.68
2023-05-08T06:25:33.071Z,4.22
2023-05-08T06:28:00.043Z,6.72
2023-05-08T06:30:27.338Z,6.18
2023-05-08T06:32:54.355Z,4.90
2023-05-08T06:35:21.362Z,5.72
2023-05-08T06:37:48.192Z,5.20
2023-05-08T06:40:15.083Z,6.00
2023-05-08T06:42:42.102Z,5.97
2023-05-08T06:45:09.679Z,6.00
2023-05-08T06:47:36.548Z,4.53
2023-05-08T06:50:03.744Z,3.92
2023-05-08T06:52:30.609Z,5.30
2023-05-08T06:54:57.406Z,4.88
2023-05-08T06:57:27.107Z,4.63
2023-05-08T06:59:54.343Z,3.92
2023-05-08T07:02:21.372Z,7.70
2023-05-08T07:04:48.719Z,6.68
2023-05-08T07:07:15.915Z,4.22
2023-05-08T07:09:42.760Z,4.95
2023-05-08T07:12:09.660Z,6.20
2023-05-08T07:14:36.874Z,6.32
2023-05-08T07:17:07.684Z,5.03
2023-05-08T07:19:37.010Z,3.60
2023-05-08T07:22:04.885Z,4.78
2023-05-08T07:24:32.393Z,4.93
2023-05-08T07:27:02.269Z,4.50
2023-05-08T07:29:29.271Z,5.30
2023-05-08T07:31:56.402Z,6.47
2023-05-08T07:34:23.354Z,5.47
2023-05-08T07:36:50.112Z,5.45
2023-05-08T07:39:16.943Z,5.05
2023-05-08T07:41:43.960Z,7.53
2023-05-08T07:44:10.817Z,7.32
2023-05-08T07:46:37.726Z,8.38
2023-05-08T07:49:04.583Z,8.85
2023-05-08T07:51:32.431Z,5.72
2023-05-08T07:53:59.328Z,8.65
2023-05-08T07:56:27.186Z,7.78
2023-05-08T07:58:54.259Z,4.65
2023-05-08T08:01:21.287Z,7.00
2023-05-08T08:03:48.475Z,6.45
2023-05-08T08:06:15.462Z,5.07
2023-05-08T08:08:42.359Z,10.68
2023-05-08T08:11:09.329Z,7.13
2023-05-08T08:13:36.035Z,5.25
2023-05-08T08:16:04.332Z,4.88
2023-05-08T08:18:35.763Z,5.28
2023-05-08T08:21:06.720Z,8.82
2023-05-08T08:23:34.246Z,5.63
2023-05-08T08:26:01.192Z,5.57
2023-05-08T08:28:28.074Z,7.28
2023-05-08T08:30:54.813Z,7.55
2023-05-08T08:33:21.603Z,6.25
2023-05-08T08:35:48.430Z,5.50
2023-05-08T08:38:15.594Z,5.78
2023-05-08T08:40:42.880Z,7.95
2023-05-08T08:43:10.422Z,7.18
2023-05-08T08:45:37.682Z,7.07
2023-05-08T08:48:05.601Z,6.88
2023-05-08T08:50:33.412Z,6.20
2023-05-08T08:53:25.859Z,7.75
2023-05-08T08:55:55.723Z,6.88
2023-05-08T08:58:32.633Z,8.25
2023-05-08T09:01:01.308Z,8.40
2023-05-08T09:03:30.703Z,10.90
2023-05-08T09:06:01.559Z,6.82
2023-05-08T09:08:28.729Z,7.45
2023-05-08T09:10:58.958Z,9.48
2023-05-08T09:13:26.547Z,7.38
2023-05-08T09:15:53.507Z,6.50
2023-05-08T09:18:20.672Z,8.30
2023-05-08T09:20:47.977Z,9.55
2023-05-08T09:23:17.373Z,10.80
2023-05-08T09:25:46.320Z,7.75
2023-05-08T09:28:17.810Z,8.48
2023-05-08T09:30:56.602Z,7.32
2023-05-08T09:33:27.881Z,9.55
2023-05-08T09:35:56.106Z,7.50
2023-05-08T09:38:40.322Z,10.52
2023-05-08T09:41:11.133Z,10.23
2023-05-08T09:43:38.981Z,10.48
2023-05-08T09:46:27.091Z,7.43
2023-05-08T09:48:59.046Z,7.90
2023-05-08T09:51:27.490Z,8.15
2023-05-08T09:53:55.327Z,8.48
2023-05-08T09:56:36.646Z,13.50
2023-05-08T09:59:23.586Z,7.22
2023-05-08T10:01:51.093Z,11.15
2023-05-08T10:04:18.439Z,12.70
2023-05-08T10:06:57.451Z,9.65
2023-05-08T10:09:25.264Z,10.27
2023-05-08T10:11:54.530Z,8.95
2023-05-08T10:14:22.932Z,9.68
2023-05-08T10:16:53.199Z,7.15
2023-05-08T10:19:23.294Z,9.05
2023-05-08T10:21:52.399Z,9.82
2023-05-08T10:24:32.016Z,5.97
2023-05-08T10:27:07.517Z,7.55
2023-05-08T10:29:46.088Z,5.60
2023-05-08T10:32:15.781Z,8.85
2023-05-08T10:34:44.156Z,7.80
2023-05-08T10:37:12.308Z,9.65
2023-05-08T10:39:40.604Z,6.93
2023-05-08T10:42:07.856Z,7.10
2023-05-08T10:44:34.989Z,7.45
2023-05-08T10:47:12.043Z,6.63
2023-05-08T10:49:59.013Z,6.10
2023-05-08T10:52:55.209Z,5.25
2023-05-08T10:55:30.272Z,6.53
2023-05-08T10:58:24.124Z,5.55
2023-05-08T11:00:53.803Z,5.82
2023-05-08T11:03:31.180Z,8.18
2023-05-08T11:06:01.541Z,7.25
2023-05-08T11:08:30.155Z,5.30
2023-05-08T11:11:04.964Z,5.68
2023-05-08T11:13:48.203Z,5.10
2023-05-08T11:16:15.185Z,7.53
2023-05-08T11:19:20.879Z,5.28
2023-05-08T11:22:20.702Z,7.00
2023-05-08T11:24:56.153Z,8.32
2023-05-08T11:27:48.317Z,6.63
2023-05-08T11:30:23.724Z,6.57
2023-05-08T11:33:05.346Z,6.43
2023-05-08T11:35:56.551Z,7.88
2023-05-08T11:38:27.727Z,7.20
2023-05-08T11:40:59.717Z,5.80
2023-05-08T11:43:27.700Z,5.85
2023-05-08T11:45:55.187Z,7.07
2023-05-08T11:48:21.964Z,5.57
2023-05-08T11:50:50.923Z,6.38
2023-05-08T11:53:17.696Z,8.00
2023-05-08T11:55:48.217Z,7.13
2023-05-08T11:58:16.668Z,7.63
2023-05-08T12:00:45.385Z,7.57
2023-05-08T12:03:13.948Z,7.22
2023-05-08T12:05:41.595Z,9.25
2023-05-08T12:08:12.986Z,5.75
2023-05-08T12:10:56.900Z,7.45
2023-05-08T12:13:28.611Z,5.55
2023-05-08T12:16:00.580Z,6.57
2023-05-08T12:18:29.756Z,5.85
2023-05-08T12:20:58.743Z,5.70
2023-05-08T12:23:26.988Z,7.43
2023-05-08T12:25:55.408Z,7.25
2023-05-08T12:28:23.044Z,8.52
2023-05-08T12:30:50.467Z,5.60
2023-05-08T12:33:18.595Z,6.68
2023-05-08T12:35:45.664Z,7.85
2023-05-08T12:38:13.692Z,6.65
2023-05-08T12:40:53.023Z,5.28
2023-05-08T12:43:19.967Z,9.05
2023-05-08T12:45:47.369Z,7.18
2023-05-08T12:48:15.662Z,6.28
2023-05-08T12:50:44.466Z,5.68
2023-05-08T12:53:15.990Z,8.02
2023-05-08T12:56:01.663Z,6.70
2023-05-08T12:58:31.413Z,7.47
2023-05-08T13:01:24.452Z,9.05
2023-05-08T13:04:01.499Z,6.25
2023-05-08T13:06:29.736Z,5.80
2023-05-08T13:08:56.635Z,5.32
2023-05-08T13:11:33.997Z,5.65
2023-05-08T13:14:00.846Z,5.32
2023-05-08T13:16:27.635Z,6.47
2023-05-08T13:18:54.509Z,6.20
2023-05-08T13:21:21.285Z,5.10
2023-05-08T13:23:48.036Z,5.32
2023-05-08T13:26:14.804Z,6.90
2023-05-08T13:28:41.593Z,5.75
2023-05-08T13:31:08.424Z,8.75
2023-05-08T13:33:35.381Z,6.68
2023-05-08T13:36:02.279Z,7.93
2023-05-08T13:38:29.084Z,6.10
2023-05-08T13:40:56.182Z,8.25
2023-05-08T13:43:23.097Z,5.18
2023-05-08T13:45:49.876Z,7.70
2023-05-08T13:48:16.786Z,5.22
2023-05-08T13:50:43.599Z,6.22
2023-05-08T13:53:10.383Z,6.22
2023-05-08T13:55:37.310Z,10.35
2023-05-08T13:58:04.065Z,6.93
2023-05-08T14:00:30.915Z,6.05
2023-05-08T14:02:57.700Z,8.32
2023-05-08T14:05:24.720Z,6.22
2023-05-08T14:07:51.504Z,7.00
2023-05-08T14:10:18.377Z,6.88
2023-05-08T14:12:45.781Z,7.47
2023-05-08T14:15:12.803Z,5.85
2023-05-08T14:17:40.096Z,6.63
2023-05-08T14:20:07.596Z,6.10
2023-05-08T14:22:35.245Z,8.07
2023-05-08T14:25:02.314Z,9.50
2023-05-08T14:27:29.187Z,6.00
2023-05-08T14:29:56.015Z,5.95
2023-05-08T14:32:22.896Z,7.90
2023-05-08T14:34:49.699Z,6.05
2023-05-08T14:37:17.739Z,7.70
2023-05-08T14:39:45.586Z,7.57
2023-05-08T14:44:42.278Z,7.15
2023-05-08T14:47:09.526Z,7.75
2023-05-08T14:49:38.533Z,8.02
2023-05-08T14:52:06.821Z,6.25
2023-05-08T14:54:34.325Z,7.15
2023-05-08T14:57:01.342Z,7.28
2023-05-08T14:59:28.184Z,7.50
2023-05-08T15:01:55.036Z,7.68
2023-05-08T15:04:22.013Z,9.68
2023-05-08T15:06:48.936Z,6.95
2023-05-08T15:09:16.691Z,7.65
2023-05-08T15:11:44.116Z,8.25
2023-05-08T15:14:10.985Z,9.48
2023-05-08T15:16:37.926Z,7.38
2023-05-08T15:19:04.875Z,7.85
2023-05-08T15:21:31.779Z,6.57
2023-05-08T15:23:58.622Z,9.32
2023-05-08T15:26:25.742Z,8.15
2023-05-08T15:28:52.634Z,6.60
2023-05-08T15:31:19.489Z,6.60
2023-05-08T15:33:47.821Z,6.30
2023-05-08T15:36:14.942Z,7.45
2023-05-08T15:38:42.540Z,8.05
2023-05-08T15:41:15.054Z,6.40
2023-05-08T15:43:42.393Z,7.20
2023-05-08T15:46:09.332Z,6.78
2023-05-08T15:48:36.625Z,7.25
2023-05-08T15:51:03.920Z,6.70
2023-05-08T15:53:30.919Z,7.20
2023-05-08T15:55:57.697Z,8.65
2023-05-08T15:58:24.658Z,6.82
2023-05-08T16:00:51.807Z,7.88
2023-05-08T16:03:19.190Z,8.40
2023-05-08T16:05:46.298Z,8.65
2023-05-08T16:08:13.914Z,6.45
2023-05-08T16:10:41.913Z,7.05
2023-05-08T16:13:09.297Z,5.50
2023-05-08T16:15:36.234Z,5.20
2023-05-08T16:18:03.220Z,7.68
2023-05-08T16:20:32.327Z,6.28
2023-05-08T16:23:00.331Z,6.93
2023-05-08T16:25:27.114Z,4.72
2023-05-08T16:27:53.950Z,6.20
2023-05-08T16:30:20.816Z,5.82
2023-05-08T16:32:47.756Z,8.57
2023-05-08T16:35:15.215Z,5.47
2023-05-08T16:37:42.304Z,4.03
2023-05-08T16:40:10.112Z,8.93
2023-05-08T16:42:37.395Z,4.13
2023-05-08T16:45:05.399Z,4.13
2023-05-08T16:47:33.040Z,6.82
2023-05-08T16:50:00.347Z,5.25
2023-05-08T16:52:27.235Z,5.20
2023-05-08T16:54:54.072Z,4.82
2023-05-08T16:57:20.880Z,5.28
2023-05-08T16:59:47.729Z,5.15
2023-05-08T17:02:19.066Z,6.15
2023-05-08T17:04:47.336Z,4.85
2023-05-08T17:07:18.149Z,6.22
2023-05-08T17:09:45.599Z,4.47
2023-05-08T17:12:12.489Z,5.15
2023-05-08T17:14:40.604Z,4.57
2023-05-08T17:17:07.810Z,5.80
2023-05-08T17:19:34.724Z,5.25
2023-05-08T17:22:01.947Z,4.65
2023-05-08T17:24:32.709Z,5.85
2023-05-08T17:26:59.688Z,5.20
2023-05-08T17:29:26.537Z,5.05
2023-05-08T17:31:53.701Z,4.10
2023-05-08T17:34:21.084Z,4.38
2023-05-08T17:36:48.038Z,4.78
2023-05-08T17:39:14.951Z,5.43
2023-05-08T17:41:41.857Z,4.15
2023-05-08T17:44:08.842Z,5.65
2023-05-08T17:46:35.711Z,4.07
2023-05-08T17:49:02.618Z,6.68
2023-05-08T17:51:30.655Z,5.70
2023-05-08T17:53:57.615Z,7.40
2023-05-08T17:56:24.583Z,6.00
2023-05-08T17:58:52.657Z,5.70
2023-05-08T18:01:20.788Z,8.85
2023-05-08T18:03:50.848Z,7.80
2023-05-08T18:06:19.069Z,8.10
2023-05-08T18:08:46.789Z,9.23
2023-05-08T18:11:24.637Z,7.68
2023-05-08T18:13:53.368Z,7.70
2023-05-08T18:16:21.518Z,7.35
2023-05-08T18:18:49.675Z,8.50
2023-05-08T18:21:16.681Z,7.70
2023-05-08T18:23:43.584Z,9.40
2023-05-08T18:26:17.226Z,9.68
2023-05-08T18:28:47.200Z,10.32
2023-05-08T18:31:16.308Z,8.40
2023-05-08T18:33:43.127Z,9.30
2023-05-08T18:36:09.997Z,11.75
2023-05-08T18:38:36.968Z,9.60
2023-05-08T18:41:05.217Z,9.30
2023-05-08T18:43:32.044Z,10.57
2023-05-08T18:46:00.600Z,9.05
2023-05-08T18:48:27.579Z,8.27
2023-05-08T18:50:58.666Z,8.25
2023-05-08T18:53:25.858Z,9.25
2023-05-08T18:55:52.983Z,8.10
2023-05-08T18:58:19.864Z,10.73
2023-05-08T19:00:46.811Z,8.75
2023-05-08T19:03:14.160Z,12.27
2023-05-08T19:05:41.856Z,10.68
2023-05-08T19:08:08.844Z,8.40
2023-05-08T19:10:35.597Z,8.20
2023-05-08T19:13:02.605Z,8.18
2023-05-08T19:15:29.445Z,9.48
2023-05-08T19:17:56.486Z,8.55
2023-05-08T19:20:23.369Z,7.88
2023-05-08T19:22:50.250Z,9.32
2023-05-08T19:25:17.060Z,7.03
2023-05-08T19:27:43.810Z,7.70
2023-05-08T19:30:11.190Z,7.38
2023-05-08T19:32:38.151Z,7.55
2023-05-08T19:35:05.668Z,5.18
2023-05-08T19:37:32.461Z,6.43
2023-05-08T19:40:00.800Z,9.32
2023-05-08T19:42:27.631Z,5.57
2023-05-08T19:44:54.427Z,7.63
2023-05-08T19:47:22.279Z,7.03
2023-05-08T19:49:50.193Z,6.95
2023-05-08T19:52:17.113Z,8.48
2023-05-08T19:54:45.667Z,8.10
2023-05-08T19:57:15.219Z,10.27
2023-05-08T19:59:42.236Z,8.60
2023-05-08T20:02:09.080Z,12.25
2023-05-08T20:04:48.552Z,7.72
2023-05-08T20:07:22.788Z,8.13
2023-05-08T20:09:49.636Z,7.30
2023-05-08T20:12:16.429Z,8.48
2023-05-08T20:14:43.351Z,9.75
2023-05-08T20:17:11.177Z,9.32
2023-05-08T20:19:39.148Z,9.23
2023-05-08T20:22:06.221Z,7.18
2023-05-08T20:24:33.041Z,10.80
2023-05-08T20:27:01.115Z,7.53
2023-05-08T20:29:33.117Z,7.28
2023-05-08T20:32:00.734Z,7.38
2023-05-08T20:34:27.802Z,8.10
2023-05-08T20:36:56.363Z,9.75
2023-05-08T20:39:23.292Z,8.63
2023-05-08T20:41:50.072Z,9.90
2023-05-08T20:44:20.783Z,8.15
2023-05-08T20:46:47.643Z,8.05
2023-05-08T20:49:14.628Z,8.45
2023-05-08T20:51:41.718Z,7.50
2023-05-08T20:54:08.484Z,10.50
2023-05-08T20:56:37.573Z,10.23
2023-05-08T20:59:04.439Z,9.02
2023-05-08T21:01:31.279Z,8.63
2023-05-08T21:03:58.197Z,8.85
2023-05-08T21:06:25.350Z,7.85
2023-05-08T21:08:52.432Z,8.57
2023-05-08T21:11:19.255Z,9.80
2023-05-08T21:13:46.001Z,7.63
2023-05-08T21:16:12.807Z,9.52
2023-05-08T21:18:39.638Z,9.38
2023-05-08T21:21:15.657Z,9.68
2023-05-08T21:23:42.806Z,9.70
2023-05-08T21:26:09.625Z,8.30
2023-05-08T21:28:36.534Z,9.10
2023-05-08T21:31:03.371Z,11.85
2023-05-08T21:33:30.368Z,8.38
2023-05-08T21:35:57.234Z,10.80
2023-05-08T21:38:24.110Z,8.25
2023-05-08T21:40:50.874Z,8.68
2023-05-08T21:43:17.663Z,10.15
2023-05-08T21:45:44.516Z,9.63
2023-05-08T21:48:11.280Z,10.18
2023-05-08T21:50:38.112Z,9.63
2023-05-08T21:53:04.927Z,11.82
2023-05-08T21:55:32.443Z,10.07
2023-05-08T21:57:59.445Z,8.70
2023-05-08T22:00:26.876Z,9.20
2023-05-08T22:02:53.729Z,10.30
2023-05-08T22:05:20.664Z,9.70
2023-05-08T22:07:47.644Z,12.52
2023-05-08T22:10:14.505Z,12.77
2023-05-08T22:12:41.418Z,14.95
2023-05-08T22:15:18.016Z,12.23
2023-05-08T22:17:49.840Z,8.75
2023-05-08T22:20:16.882Z,9.52
2023-05-08T22:22:45.970Z,13.50
2023-05-08T22:25:13.141Z,9.00
2023-05-08T22:27:40.104Z,9.70
2023-05-08T22:32:34.890Z,10.32
2023-05-08T22:35:01.793Z,12.30
2023-05-08T22:37:29.944Z,11.02
2023-05-08T22:39:56.729Z,10.75
2023-05-08T22:42:24.426Z,9.77
2023-05-08T22:44:51.527Z,21.42
2023-05-08T22:47:18.379Z,10.80
2023-05-08T22:49:45.179Z,9.95
2023-05-08T22:52:12.465Z,9.70
2023-05-08T22:54:39.211Z,12.10
2023-05-08T22:57:06.186Z,9.18
2023-05-08T22:59:33.106Z,7.95
2023-05-08T23:01:59.890Z,9.82
2023-05-08T23:04:26.718Z,12.73
2023-05-08T23:06:53.585Z,9.00
2023-05-08T23:09:20.451Z,9.18
2023-05-08T23:11:47.490Z,9.85
2023-05-08T23:14:14.275Z,9.75
2023-05-08T23:16:41.095Z,10.18
2023-05-08T23:19:10.021Z,10.13
2023-05-08T23:21:37.100Z,8.98
2023-05-08T23:24:04.923Z,9.65
2023-05-08T23:26:31.960Z,9.43
2023-05-08T23:28:58.727Z,8.77
2023-05-08T23:31:25.495Z,10.88
2023-05-08T23:33:52.278Z,8.32
2023-05-08T23:36:19.146Z,10.38
2023-05-08T23:38:45.933Z,10.32
2023-05-08T23:41:12.737Z,9.45
2023-05-08T23:43:39.587Z,9.35
2023-05-08T23:46:06.531Z,8.65
2023-05-08T23:48:33.402Z,10.25
2023-05-08T23:51:00.272Z,10.23
2023-05-08T23:53:27.076Z,9.15
2023-05-08T23:55:53.913Z,8.70
2023-05-08T23:58:20.922Z,9.15
